• Join FlightAware (Why Join?)
  • Login
  • US Flag 
06:02PM EST


 

Airport Tracker/Info


-or-


 

Live Flight TrackerFlight Track Log ✈ CSN3864 ✈ 24-Jun-2013 ✈ ZPPP / KMG - ZGNN / NNG

Flight Track Log - Related Links

Times and Time Zones

All times are in EDT time to prevent confusion due to time zone crossing. See the CSN3864 flight status page for this flight to view local times or setup timezone preferences in your user account.

Time Position Orientation Groundspeed Altitude Reporting Facility
EDT Latitude Longitude Course Direction KTS MPH feet Rate Location/Type
12:52PM 25.0386 103.0698 116° Southeast  Level Estimated
12:53PM 24.9931 103.1706 116° Southeast  Level Estimated
12:54PM 24.9476 103.2713 116° Southeast  Level Estimated
12:55PM 24.9020 103.3720 117° Southeast  Level Estimated
12:56PM 24.8563 103.4725 117° Southeast  Level Estimated
12:57PM 24.8105 103.5730 117° Southeast  Level Estimated
12:58PM 24.7647 103.6734 117° Southeast  Level Estimated
12:59PM 24.7188 103.7737 117° Southeast  Level Estimated
01:00PM 24.6728 103.8740 117° Southeast  Level Estimated
01:01PM 24.6268 103.9742 117° Southeast  Level Estimated
01:02PM 24.5807 104.0743 117° Southeast  Level Estimated
01:03PM 24.5346 104.1743 117° Southeast  Level Estimated
01:04PM 24.4884 104.2742 117° Southeast  Level Estimated
01:05PM 24.4421 104.3741 117° Southeast  Level Estimated
01:06PM 24.3957 104.4740 117° Southeast  Level Estimated
01:07PM 24.3493 104.5737 117° Southeast  Level Estimated
01:08PM 24.3028 104.6734 117° Southeast  Level Estimated
01:09PM 24.2563 104.7729 117° Southeast  Level Estimated
01:10PM 24.2097 104.8725 117° Southeast  Level Estimated
01:11PM 24.1630 104.9719 117° Southeast  Level Estimated
01:12PM 24.1162 105.0713 117° Southeast  Level Estimated
01:13PM 24.0694 105.1706 117° Southeast  Level Estimated
01:14PM 24.0226 105.2698 117° Southeast  Level Estimated
01:15PM 23.9756 105.3690 117° Southeast  Level Estimated
01:16PM 23.9286 105.4681 117° Southeast  Level Estimated
01:17PM 23.8816 105.5671 117° Southeast  Level Estimated
01:18PM 23.8344 105.6660 117° Southeast  Level Estimated
01:19PM 23.7873 105.7649 118° Southeast  Level Estimated
01:20PM 23.7400 105.8637 118° Southeast  Level Estimated
01:21PM 23.6927 105.9624 118° Southeast  Level Estimated
01:22PM 23.6453 106.0611 118° Southeast  Level Estimated
01:23PM 23.5979 106.1597 118° Southeast  Level Estimated
01:24PM 23.5504 106.2582 118° Southeast  Level Estimated
01:25PM 23.5028 106.3566 118° Southeast  Level Estimated
01:26PM 23.4552 106.4550 118° Southeast  Level Estimated
01:27PM 23.4075 106.5533 118° Southeast  Level Estimated
01:28PM 23.3598 106.6515 118° Southeast  Level Estimated
01:29PM 23.3120 106.7497 118° Southeast  Level Estimated
01:30PM 23.2641 106.8478 118° Southeast  Level Estimated
01:31PM 23.2162 106.9458 118° Southeast  Level Estimated
01:32PM 23.1682 107.0437 118° Southeast  Level Estimated
01:33PM 23.1201 107.1416 118° Southeast  Level Estimated
01:34PM 23.0720 107.2394 118° Southeast  Level Estimated
01:35PM 23.0238 107.3371 118° Southeast  Level Estimated
01:36PM 22.9756 107.4348 118° Southeast  Level Estimated
01:37PM 22.9273 107.5324 118° Southeast  Level Estimated
01:38PM 22.8771 107.6337 118° Southeast  Level Estimated
01:39PM 22.8267 107.7350 118° Southeast  Level Estimated
01:40PM 22.7764 107.8362 118° Southeast  Level Estimated